sensor_id;sensor_type;location;lat;lon;timestamp;P1;durP1;ratioP1;P2;durP2;ratioP2
39486;SDS011;25173;50.430;18.926;2023-06-26T00:02:17;10.43;;;7.72;;
39486;SDS011;25173;50.430;18.926;2023-06-26T00:05:17;11.13;;;6.85;;
39486;SDS011;25173;50.430;18.926;2023-06-26T00:08:18;14.75;;;7.40;;
39486;SDS011;25173;50.430;18.926;2023-06-26T00:11:19;11.60;;;8.02;;
39486;SDS011;25173;50.430;18.926;2023-06-26T00:14:20;10.35;;;7.38;;
39486;SDS011;25173;50.430;18.926;2023-06-26T00:17:21;12.70;;;7.22;;
39486;SDS011;25173;50.430;18.926;2023-06-26T00:20:22;14.07;;;6.80;;
39486;SDS011;25173;50.430;18.926;2023-06-26T00:23:23;12.00;;;6.95;;
39486;SDS011;25173;50.430;18.926;2023-06-26T00:26:24;10.48;;;6.95;;
39486;SDS011;25173;50.430;18.926;2023-06-26T00:29:24;11.50;;;7.57;;
39486;SDS011;25173;50.430;18.926;2023-06-26T00:32:25;10.48;;;6.78;;
39486;SDS011;25173;50.430;18.926;2023-06-26T00:35:26;11.95;;;6.95;;
39486;SDS011;25173;50.430;18.926;2023-06-26T00:38:26;11.68;;;7.30;;
39486;SDS011;25173;50.430;18.926;2023-06-26T00:41:27;11.38;;;6.45;;
39486;SDS011;25173;50.430;18.926;2023-06-26T00:44:27;10.90;;;7.03;;
39486;SDS011;25173;50.430;18.926;2023-06-26T00:47:28;8.40;;;6.43;;
39486;SDS011;25173;50.430;18.926;2023-06-26T00:50:29;13.43;;;7.22;;
39486;SDS011;25173;50.430;18.926;2023-06-26T00:53:30;14.70;;;7.88;;
39486;SDS011;25173;50.430;18.926;2023-06-26T00:56:31;8.20;;;6.20;;
39486;SDS011;25173;50.430;18.926;2023-06-26T00:59:33;15.52;;;8.20;;
39486;SDS011;25173;50.430;18.926;2023-06-26T01:02:34;11.15;;;7.22;;
39486;SDS011;25173;50.430;18.926;2023-06-26T01:05:35;14.77;;;8.50;;
39486;SDS011;25173;50.430;18.926;2023-06-26T01:08:36;16.27;;;8.45;;
39486;SDS011;25173;50.430;18.926;2023-06-26T01:11:38;9.93;;;7.43;;
39486;SDS011;25173;50.430;18.926;2023-06-26T01:14:38;15.55;;;7.57;;
39486;SDS011;25173;50.430;18.926;2023-06-26T01:17:39;12.07;;;8.13;;
39486;SDS011;25173;50.430;18.926;2023-06-26T01:20:44;12.75;;;8.32;;
39486;SDS011;25173;50.430;18.926;2023-06-26T01:23:48;14.40;;;7.38;;
39486;SDS011;25173;50.430;18.926;2023-06-26T01:26:58;18.65;;;8.35;;
39486;SDS011;25173;50.430;18.926;2023-06-26T01:30:02;11.65;;;7.57;;
39486;SDS011;25173;50.430;18.926;2023-06-26T01:33:04;12.70;;;8.02;;
39486;SDS011;25173;50.430;18.926;2023-06-26T01:36:05;13.32;;;7.07;;
39486;SDS011;25173;50.430;18.926;2023-06-26T01:39:09;11.07;;;7.18;;
39486;SDS011;25173;50.430;18.926;2023-06-26T01:42:09;15.52;;;7.70;;
39486;SDS011;25173;50.430;18.926;2023-06-26T01:45:16;12.70;;;8.00;;
39486;SDS011;25173;50.430;18.926;2023-06-26T01:48:27;15.30;;;7.60;;
39486;SDS011;25173;50.430;18.926;2023-06-26T01:51:32;14.90;;;8.15;;
39486;SDS011;25173;50.430;18.926;2023-06-26T01:54:39;13.07;;;8.15;;
39486;SDS011;25173;50.430;18.926;2023-06-26T01:57:47;11.98;;;7.28;;
39486;SDS011;25173;50.430;18.926;2023-06-26T02:00:48;11.05;;;7.05;;
39486;SDS011;25173;50.430;18.926;2023-06-26T02:03:49;9.35;;;7.20;;
39486;SDS011;25173;50.430;18.926;2023-06-26T02:06:49;12.05;;;8.10;;
39486;SDS011;25173;50.430;18.926;2023-06-26T02:09:50;9.20;;;6.70;;
39486;SDS011;25173;50.430;18.926;2023-06-26T02:12:51;9.48;;;7.07;;
39486;SDS011;25173;50.430;18.926;2023-06-26T02:15:52;11.32;;;6.93;;
39486;SDS011;25173;50.430;18.926;2023-06-26T02:18:52;10.10;;;7.20;;
39486;SDS011;25173;50.430;18.926;2023-06-26T02:21:53;10.02;;;7.32;;
39486;SDS011;25173;50.430;18.926;2023-06-26T02:24:54;8.50;;;6.13;;
39486;SDS011;25173;50.430;18.926;2023-06-26T02:27:55;11.27;;;7.03;;
39486;SDS011;25173;50.430;18.926;2023-06-26T02:30:55;10.90;;;6.85;;
39486;SDS011;25173;50.430;18.926;2023-06-26T02:33:58;9.55;;;7.88;;
39486;SDS011;25173;50.430;18.926;2023-06-26T02:36:59;9.48;;;6.25;;
39486;SDS011;25173;50.430;18.926;2023-06-26T02:40:00;13.73;;;6.72;;
39486;SDS011;25173;50.430;18.926;2023-06-26T02:43:01;13.07;;;7.80;;
39486;SDS011;25173;50.430;18.926;2023-06-26T02:46:02;14.68;;;7.75;;
39486;SDS011;25173;50.430;18.926;2023-06-26T02:49:02;14.90;;;7.65;;
39486;SDS011;25173;50.430;18.926;2023-06-26T02:52:03;12.15;;;7.13;;
39486;SDS011;25173;50.430;18.926;2023-06-26T02:55:04;16.13;;;7.75;;
39486;SDS011;25173;50.430;18.926;2023-06-26T02:58:05;13.60;;;7.53;;
39486;SDS011;25173;50.430;18.926;2023-06-26T03:01:07;17.63;;;7.72;;
39486;SDS011;25173;50.430;18.926;2023-06-26T03:04:08;12.80;;;7.07;;
39486;SDS011;25173;50.430;18.926;2023-06-26T03:07:10;11.05;;;7.55;;
39486;SDS011;25173;50.430;18.926;2023-06-26T03:10:12;11.45;;;7.43;;
39486;SDS011;25173;50.430;18.926;2023-06-26T03:13:13;12.27;;;7.07;;
39486;SDS011;25173;50.430;18.926;2023-06-26T03:16:14;8.48;;;6.43;;
39486;SDS011;25173;50.430;18.926;2023-06-26T03:19:14;11.98;;;7.32;;
39486;SDS011;25173;50.430;18.926;2023-06-26T03:22:38;11.60;;;7.35;;
39486;SDS011;25173;50.430;18.926;2023-06-26T03:25:38;12.38;;;6.80;;
39486;SDS011;25173;50.430;18.926;2023-06-26T03:28:59;10.82;;;6.72;;
39486;SDS011;25173;50.430;18.926;2023-06-26T03:32:01;7.85;;;7.00;;
39486;SDS011;25173;50.430;18.926;2023-06-26T03:35:01;10.73;;;6.72;;
39486;SDS011;25173;50.430;18.926;2023-06-26T03:38:04;10.68;;;6.93;;
39486;SDS011;25173;50.430;18.926;2023-06-26T03:41:06;8.57;;;6.47;;
39486;SDS011;25173;50.430;18.926;2023-06-26T03:44:07;9.63;;;6.88;;
39486;SDS011;25173;50.430;18.926;2023-06-26T03:47:16;10.18;;;6.65;;
39486;SDS011;25173;50.430;18.926;2023-06-26T03:50:17;8.35;;;6.28;;
39486;SDS011;25173;50.430;18.926;2023-06-26T03:53:18;9.68;;;6.57;;
39486;SDS011;25173;50.430;18.926;2023-06-26T03:56:19;10.35;;;7.07;;
39486;SDS011;25173;50.430;18.926;2023-06-26T03:59:19;10.95;;;6.63;;
39486;SDS011;25173;50.430;18.926;2023-06-26T04:02:20;12.13;;;7.32;;
39486;SDS011;25173;50.430;18.926;2023-06-26T04:05:20;10.02;;;6.93;;
39486;SDS011;25173;50.430;18.926;2023-06-26T04:08:23;12.45;;;7.32;;
39486;SDS011;25173;50.430;18.926;2023-06-26T04:11:26;11.02;;;6.57;;
39486;SDS011;25173;50.430;18.926;2023-06-26T04:14:27;13.35;;;7.07;;
39486;SDS011;25173;50.430;18.926;2023-06-26T04:17:28;13.77;;;7.47;;
39486;SDS011;25173;50.430;18.926;2023-06-26T04:20:28;10.43;;;6.80;;
39486;SDS011;25173;50.430;18.926;2023-06-26T04:23:29;9.75;;;6.72;;
39486;SDS011;25173;50.430;18.926;2023-06-26T04:26:31;11.38;;;7.47;;
39486;SDS011;25173;50.430;18.926;2023-06-26T04:29:31;12.30;;;8.20;;
39486;SDS011;25173;50.430;18.926;2023-06-26T04:32:32;12.38;;;8.63;;
39486;SDS011;25173;50.430;18.926;2023-06-26T04:35:32;15.13;;;8.13;;
39486;SDS011;25173;50.430;18.926;2023-06-26T04:38:36;13.73;;;8.35;;
39486;SDS011;25173;50.430;18.926;2023-06-26T04:41:37;13.40;;;8.18;;
39486;SDS011;25173;50.430;18.926;2023-06-26T04:44:37;11.55;;;8.18;;
39486;SDS011;25173;50.430;18.926;2023-06-26T04:47:38;10.27;;;7.70;;
39486;SDS011;25173;50.430;18.926;2023-06-26T04:50:39;13.27;;;7.47;;
39486;SDS011;25173;50.430;18.926;2023-06-26T04:53:40;11.02;;;7.57;;
39486;SDS011;25173;50.430;18.926;2023-06-26T04:56:41;10.57;;;7.75;;
39486;SDS011;25173;50.430;18.926;2023-06-26T04:59:41;15.05;;;8.30;;
39486;SDS011;25173;50.430;18.926;2023-06-26T05:02:42;9.68;;;7.43;;
39486;SDS011;25173;50.430;18.926;2023-06-26T05:05:43;12.00;;;7.68;;
39486;SDS011;25173;50.430;18.926;2023-06-26T05:08:44;14.02;;;7.55;;
39486;SDS011;25173;50.430;18.926;2023-06-26T05:11:44;10.18;;;7.05;;
39486;SDS011;25173;50.430;18.926;2023-06-26T05:14:45;10.82;;;7.43;;
39486;SDS011;25173;50.430;18.926;2023-06-26T05:17:46;11.35;;;7.47;;
39486;SDS011;25173;50.430;18.926;2023-06-26T05:20:47;15.15;;;8.35;;
39486;SDS011;25173;50.430;18.926;2023-06-26T05:23:48;12.90;;;6.95;;
39486;SDS011;25173;50.430;18.926;2023-06-26T05:26:50;12.35;;;7.38;;
39486;SDS011;25173;50.430;18.926;2023-06-26T05:29:51;15.63;;;7.28;;
39486;SDS011;25173;50.430;18.926;2023-06-26T05:32:52;9.18;;;6.82;;
39486;SDS011;25173;50.430;18.926;2023-06-26T05:35:54;9.38;;;6.93;;
39486;SDS011;25173;50.430;18.926;2023-06-26T05:38:55;8.73;;;7.32;;
39486;SDS011;25173;50.430;18.926;2023-06-26T05:41:56;6.90;;;6.20;;
39486;SDS011;25173;50.430;18.926;2023-06-26T05:44:58;11.68;;;7.05;;
39486;SDS011;25173;50.430;18.926;2023-06-26T05:47:58;7.00;;;6.10;;
39486;SDS011;25173;50.430;18.926;2023-06-26T05:50:59;11.68;;;6.40;;
39486;SDS011;25173;50.430;18.926;2023-06-26T05:54:00;11.27;;;6.30;;
39486;SDS011;25173;50.430;18.926;2023-06-26T05:57:01;11.65;;;6.40;;
39486;SDS011;25173;50.430;18.926;2023-06-26T06:00:03;11.85;;;6.75;;
39486;SDS011;25173;50.430;18.926;2023-06-26T06:03:13;8.88;;;6.20;;
39486;SDS011;25173;50.430;18.926;2023-06-26T06:06:14;8.20;;;6.05;;
39486;SDS011;25173;50.430;18.926;2023-06-26T06:09:16;9.43;;;5.88;;
39486;SDS011;25173;50.430;18.926;2023-06-26T06:12:16;7.10;;;5.30;;
39486;SDS011;25173;50.430;18.926;2023-06-26T06:15:18;7.22;;;5.18;;
39486;SDS011;25173;50.430;18.926;2023-06-26T06:18:18;11.50;;;6.13;;
39486;SDS011;25173;50.430;18.926;2023-06-26T06:21:19;12.82;;;6.15;;
39486;SDS011;25173;50.430;18.926;2023-06-26T06:24:20;11.40;;;5.78;;
39486;SDS011;25173;50.430;18.926;2023-06-26T06:27:20;7.43;;;5.88;;
39486;SDS011;25173;50.430;18.926;2023-06-26T06:30:21;11.40;;;5.97;;
39486;SDS011;25173;50.430;18.926;2023-06-26T06:33:21;10.50;;;5.57;;
39486;SDS011;25173;50.430;18.926;2023-06-26T06:36:22;8.50;;;5.32;;
39486;SDS011;25173;50.430;18.926;2023-06-26T06:39:23;7.68;;;6.03;;
39486;SDS011;25173;50.430;18.926;2023-06-26T06:42:23;8.13;;;6.40;;
39486;SDS011;25173;50.430;18.926;2023-06-26T06:45:24;6.68;;;4.35;;
39486;SDS011;25173;50.430;18.926;2023-06-26T06:48:24;6.00;;;5.40;;
39486;SDS011;25173;50.430;18.926;2023-06-26T06:51:25;7.07;;;4.60;;
39486;SDS011;25173;50.430;18.926;2023-06-26T06:54:26;7.43;;;5.10;;
39486;SDS011;25173;50.430;18.926;2023-06-26T06:57:27;5.22;;;4.53;;
39486;SDS011;25173;50.430;18.926;2023-06-26T07:00:28;6.68;;;4.75;;
39486;SDS011;25173;50.430;18.926;2023-06-26T07:03:28;7.15;;;4.65;;
39486;SDS011;25173;50.430;18.926;2023-06-26T07:06:29;11.05;;;4.25;;
39486;SDS011;25173;50.430;18.926;2023-06-26T07:09:30;5.75;;;4.80;;
39486;SDS011;25173;50.430;18.926;2023-06-26T07:12:31;4.63;;;4.22;;
39486;SDS011;25173;50.430;18.926;2023-06-26T07:15:31;6.85;;;5.10;;
39486;SDS011;25173;50.430;18.926;2023-06-26T07:18:32;4.85;;;4.40;;
39486;SDS011;25173;50.430;18.926;2023-06-26T07:21:33;8.43;;;5.13;;
39486;SDS011;25173;50.430;18.926;2023-06-26T07:24:33;7.70;;;4.65;;
39486;SDS011;25173;50.430;18.926;2023-06-26T07:27:34;5.68;;;5.05;;
39486;SDS011;25173;50.430;18.926;2023-06-26T07:30:34;7.45;;;4.80;;
39486;SDS011;25173;50.430;18.926;2023-06-26T07:33:35;7.00;;;4.47;;
39486;SDS011;25173;50.430;18.926;2023-06-26T07:36:35;5.97;;;4.57;;
39486;SDS011;25173;50.430;18.926;2023-06-26T07:39:36;15.77;;;5.03;;
39486;SDS011;25173;50.430;18.926;2023-06-26T07:42:36;6.90;;;4.43;;
39486;SDS011;25173;50.430;18.926;2023-06-26T07:45:37;5.30;;;4.07;;
39486;SDS011;25173;50.430;18.926;2023-06-26T07:48:38;6.25;;;4.57;;
39486;SDS011;25173;50.430;18.926;2023-06-26T07:51:38;5.90;;;4.65;;
39486;SDS011;25173;50.430;18.926;2023-06-26T07:54:39;7.72;;;4.75;;
39486;SDS011;25173;50.430;18.926;2023-06-26T07:57:40;4.65;;;4.22;;
39486;SDS011;25173;50.430;18.926;2023-06-26T08:00:40;10.32;;;4.03;;
39486;SDS011;25173;50.430;18.926;2023-06-26T08:03:41;12.73;;;4.95;;
39486;SDS011;25173;50.430;18.926;2023-06-26T08:06:43;7.78;;;4.55;;
39486;SDS011;25173;50.430;18.926;2023-06-26T08:09:44;5.20;;;4.55;;
39486;SDS011;25173;50.430;18.926;2023-06-26T08:12:44;5.80;;;3.85;;
39486;SDS011;25173;50.430;18.926;2023-06-26T08:15:45;6.10;;;4.88;;
39486;SDS011;25173;50.430;18.926;2023-06-26T08:18:46;5.50;;;4.32;;
39486;SDS011;25173;50.430;18.926;2023-06-26T08:21:46;8.80;;;4.88;;
39486;SDS011;25173;50.430;18.926;2023-06-26T08:24:47;4.60;;;3.90;;
39486;SDS011;25173;50.430;18.926;2023-06-26T08:27:48;6.15;;;3.80;;
39486;SDS011;25173;50.430;18.926;2023-06-26T08:30:48;5.47;;;4.85;;
39486;SDS011;25173;50.430;18.926;2023-06-26T08:33:49;4.43;;;4.03;;
39486;SDS011;25173;50.430;18.926;2023-06-26T08:36:50;5.85;;;3.95;;
39486;SDS011;25173;50.430;18.926;2023-06-26T08:39:50;6.78;;;4.35;;
39486;SDS011;25173;50.430;18.926;2023-06-26T08:42:51;9.02;;;4.75;;
39486;SDS011;25173;50.430;18.926;2023-06-26T08:45:53;8.73;;;4.00;;
39486;SDS011;25173;50.430;18.926;2023-06-26T08:48:55;4.90;;;4.40;;
39486;SDS011;25173;50.430;18.926;2023-06-26T08:51:57;7.10;;;4.43;;
39486;SDS011;25173;50.430;18.926;2023-06-26T08:55:03;7.57;;;4.13;;
39486;SDS011;25173;50.430;18.926;2023-06-26T08:58:09;5.10;;;3.95;;
39486;SDS011;25173;50.430;18.926;2023-06-26T09:01:11;5.38;;;3.80;;
39486;SDS011;25173;50.430;18.926;2023-06-26T09:04:13;4.80;;;3.63;;
39486;SDS011;25173;50.430;18.926;2023-06-26T09:07:14;5.13;;;4.20;;
39486;SDS011;25173;50.430;18.926;2023-06-26T09:10:15;6.32;;;4.05;;
39486;SDS011;25173;50.430;18.926;2023-06-26T09:13:16;5.03;;;3.65;;
39486;SDS011;25173;50.430;18.926;2023-06-26T09:16:17;6.13;;;4.32;;
39486;SDS011;25173;50.430;18.926;2023-06-26T09:19:17;5.50;;;4.32;;
39486;SDS011;25173;50.430;18.926;2023-06-26T09:22:18;4.15;;;3.72;;
39486;SDS011;25173;50.430;18.926;2023-06-26T09:25:19;6.95;;;4.53;;
39486;SDS011;25173;50.430;18.926;2023-06-26T09:28:22;7.25;;;5.07;;
39486;SDS011;25173;50.430;18.926;2023-06-26T09:31:23;6.90;;;4.32;;
39486;SDS011;25173;50.430;18.926;2023-06-26T09:34:29;4.97;;;4.47;;
39486;SDS011;25173;50.430;18.926;2023-06-26T09:37:32;6.40;;;4.10;;
39486;SDS011;25173;50.430;18.926;2023-06-26T09:40:32;7.43;;;4.90;;
39486;SDS011;25173;50.430;18.926;2023-06-26T09:43:36;4.97;;;4.47;;
39486;SDS011;25173;50.430;18.926;2023-06-26T09:46:46;6.65;;;4.20;;
39486;SDS011;25173;50.430;18.926;2023-06-26T09:49:47;6.50;;;4.35;;
39486;SDS011;25173;50.430;18.926;2023-06-26T09:52:47;5.85;;;4.50;;
39486;SDS011;25173;50.430;18.926;2023-06-26T09:55:50;11.43;;;4.90;;
39486;SDS011;25173;50.430;18.926;2023-06-26T09:58:51;5.63;;;4.20;;
39486;SDS011;25173;50.430;18.926;2023-06-26T10:01:58;7.80;;;4.80;;
39486;SDS011;25173;50.430;18.926;2023-06-26T10:04:59;4.18;;;3.78;;
39486;SDS011;25173;50.430;18.926;2023-06-26T10:08:00;13.20;;;3.95;;
39486;SDS011;25173;50.430;18.926;2023-06-26T10:11:02;5.45;;;3.97;;
39486;SDS011;25173;50.430;18.926;2023-06-26T10:14:03;5.20;;;4.32;;
39486;SDS011;25173;50.430;18.926;2023-06-26T10:17:07;5.00;;;4.50;;
39486;SDS011;25173;50.430;18.926;2023-06-26T10:20:10;6.25;;;4.30;;
39486;SDS011;25173;50.430;18.926;2023-06-26T10:23:13;5.15;;;4.30;;
39486;SDS011;25173;50.430;18.926;2023-06-26T10:26:15;5.60;;;4.45;;
39486;SDS011;25173;50.430;18.926;2023-06-26T10:29:16;8.27;;;4.22;;
39486;SDS011;25173;50.430;18.926;2023-06-26T10:32:19;6.53;;;4.05;;
39486;SDS011;25173;50.430;18.926;2023-06-26T10:35:21;4.97;;;4.00;;
39486;SDS011;25173;50.430;18.926;2023-06-26T10:38:22;6.90;;;3.88;;
39486;SDS011;25173;50.430;18.926;2023-06-26T10:41:49;7.22;;;4.10;;
39486;SDS011;25173;50.430;18.926;2023-06-26T10:44:56;5.10;;;4.20;;
39486;SDS011;25173;50.430;18.926;2023-06-26T10:48:12;4.70;;;4.20;;
39486;SDS011;25173;50.430;18.926;2023-06-26T10:51:14;4.38;;;3.40;;
39486;SDS011;25173;50.430;18.926;2023-06-26T10:54:16;4.70;;;4.10;;
39486;SDS011;25173;50.430;18.926;2023-06-26T10:57:23;3.63;;;3.33;;
39486;SDS011;25173;50.430;18.926;2023-06-26T11:00:25;5.53;;;4.00;;
39486;SDS011;25173;50.430;18.926;2023-06-26T11:03:29;4.57;;;4.18;;
39486;SDS011;25173;50.430;18.926;2023-06-26T11:09:32;7.50;;;3.97;;
39486;SDS011;25173;50.430;18.926;2023-06-26T11:12:57;7.40;;;5.07;;
39486;SDS011;25173;50.430;18.926;2023-06-26T11:15:58;6.43;;;4.00;;
39486;SDS011;25173;50.430;18.926;2023-06-26T11:18:59;5.13;;;3.90;;
39486;SDS011;25173;50.430;18.926;2023-06-26T11:22:01;8.40;;;3.97;;
39486;SDS011;25173;50.430;18.926;2023-06-26T11:25:04;5.93;;;4.40;;
39486;SDS011;25173;50.430;18.926;2023-06-26T11:28:09;4.43;;;4.03;;
39486;SDS011;25173;50.430;18.926;2023-06-26T11:31:20;6.32;;;4.35;;
39486;SDS011;25173;50.430;18.926;2023-06-26T11:34:32;4.75;;;3.97;;
39486;SDS011;25173;50.430;18.926;2023-06-26T11:37:33;4.07;;;3.53;;
39486;SDS011;25173;50.430;18.926;2023-06-26T11:40:34;4.15;;;3.53;;
39486;SDS011;25173;50.430;18.926;2023-06-26T11:43:36;5.15;;;4.05;;
39486;SDS011;25173;50.430;18.926;2023-06-26T11:46:37;7.18;;;4.07;;
39486;SDS011;25173;50.430;18.926;2023-06-26T11:49:38;4.45;;;3.80;;
39486;SDS011;25173;50.430;18.926;2023-06-26T11:52:42;4.47;;;3.67;;
39486;SDS011;25173;50.430;18.926;2023-06-26T11:55:42;9.27;;;4.40;;
39486;SDS011;25173;50.430;18.926;2023-06-26T11:58:56;5.80;;;4.55;;
39486;SDS011;25173;50.430;18.926;2023-06-26T12:02:05;4.53;;;4.03;;
39486;SDS011;25173;50.430;18.926;2023-06-26T12:05:07;5.82;;;3.75;;
39486;SDS011;25173;50.430;18.926;2023-06-26T12:08:08;5.63;;;4.22;;
39486;SDS011;25173;50.430;18.926;2023-06-26T12:11:10;5.47;;;3.80;;
39486;SDS011;25173;50.430;18.926;2023-06-26T12:14:11;9.70;;;4.32;;
39486;SDS011;25173;50.430;18.926;2023-06-26T12:17:12;5.05;;;3.88;;
39486;SDS011;25173;50.430;18.926;2023-06-26T12:20:23;4.85;;;4.00;;
39486;SDS011;25173;50.430;18.926;2023-06-26T12:23:31;5.70;;;3.80;;
39486;SDS011;25173;50.430;18.926;2023-06-26T12:26:42;4.68;;;4.22;;
39486;SDS011;25173;50.430;18.926;2023-06-26T12:29:51;4.32;;;3.75;;
39486;SDS011;25173;50.430;18.926;2023-06-26T12:32:53;10.52;;;4.35;;
39486;SDS011;25173;50.430;18.926;2023-06-26T12:35:55;6.45;;;4.40;;
39486;SDS011;25173;50.430;18.926;2023-06-26T12:39:00;6.88;;;3.90;;
39486;SDS011;25173;50.430;18.926;2023-06-26T12:42:01;5.37;;;3.87;;
39486;SDS011;25173;50.430;18.926;2023-06-26T12:45:10;4.53;;;3.67;;
39486;SDS011;25173;50.430;18.926;2023-06-26T12:48:14;5.63;;;4.25;;
39486;SDS011;25173;50.430;18.926;2023-06-26T12:51:16;6.55;;;3.90;;
39486;SDS011;25173;50.430;18.926;2023-06-26T12:54:17;5.82;;;4.28;;
39486;SDS011;25173;50.430;18.926;2023-06-26T12:57:17;4.85;;;3.83;;
39486;SDS011;25173;50.430;18.926;2023-06-26T13:00:18;5.15;;;4.38;;
39486;SDS011;25173;50.430;18.926;2023-06-26T13:03:19;4.65;;;4.25;;
39486;SDS011;25173;50.430;18.926;2023-06-26T13:06:21;5.10;;;3.80;;
39486;SDS011;25173;50.430;18.926;2023-06-26T13:09:22;4.25;;;3.78;;
39486;SDS011;25173;50.430;18.926;2023-06-26T13:12:24;6.13;;;3.80;;
39486;SDS011;25173;50.430;18.926;2023-06-26T13:15:24;3.95;;;3.55;;
39486;SDS011;25173;50.430;18.926;2023-06-26T13:18:25;4.60;;;3.50;;
39486;SDS011;25173;50.430;18.926;2023-06-26T13:21:26;3.97;;;3.63;;
39486;SDS011;25173;50.430;18.926;2023-06-26T13:24:27;5.45;;;3.65;;
39486;SDS011;25173;50.430;18.926;2023-06-26T13:27:27;6.20;;;4.13;;
39486;SDS011;25173;50.430;18.926;2023-06-26T13:30:28;4.03;;;3.63;;
39486;SDS011;25173;50.430;18.926;2023-06-26T13:33:30;8.18;;;4.18;;
39486;SDS011;25173;50.430;18.926;2023-06-26T13:36:31;4.45;;;3.70;;
39486;SDS011;25173;50.430;18.926;2023-06-26T13:39:34;5.97;;;3.88;;
39486;SDS011;25173;50.430;18.926;2023-06-26T13:42:35;5.95;;;4.25;;
39486;SDS011;25173;50.430;18.926;2023-06-26T13:45:36;4.85;;;3.90;;
39486;SDS011;25173;50.430;18.926;2023-06-26T13:48:37;8.48;;;4.28;;
39486;SDS011;25173;50.430;18.926;2023-06-26T13:51:38;6.63;;;3.88;;
39486;SDS011;25173;50.430;18.926;2023-06-26T13:54:38;4.30;;;3.90;;
39486;SDS011;25173;50.430;18.926;2023-06-26T13:57:40;4.57;;;3.95;;
39486;SDS011;25173;50.430;18.926;2023-06-26T14:00:41;7.22;;;4.40;;
39486;SDS011;25173;50.430;18.926;2023-06-26T14:03:44;7.55;;;4.22;;
39486;SDS011;25173;50.430;18.926;2023-06-26T14:06:45;9.50;;;4.10;;
39486;SDS011;25173;50.430;18.926;2023-06-26T14:09:45;4.78;;;3.50;;
39486;SDS011;25173;50.430;18.926;2023-06-26T14:12:46;8.18;;;3.65;;
39486;SDS011;25173;50.430;18.926;2023-06-26T14:15:47;3.53;;;3.22;;
39486;SDS011;25173;50.430;18.926;2023-06-26T14:18:48;4.03;;;3.33;;
39486;SDS011;25173;50.430;18.926;2023-06-26T14:21:48;4.20;;;3.80;;
39486;SDS011;25173;50.430;18.926;2023-06-26T14:24:49;4.30;;;3.53;;
39486;SDS011;25173;50.430;18.926;2023-06-26T14:27:49;5.55;;;3.78;;
39486;SDS011;25173;50.430;18.926;2023-06-26T14:30:50;4.10;;;3.47;;
39486;SDS011;25173;50.430;18.926;2023-06-26T14:33:51;5.72;;;3.45;;
39486;SDS011;25173;50.430;18.926;2023-06-26T14:36:51;4.63;;;3.20;;
39486;SDS011;25173;50.430;18.926;2023-06-26T14:39:52;5.30;;;3.63;;
39486;SDS011;25173;50.430;18.926;2023-06-26T14:42:53;3.85;;;3.47;;
39486;SDS011;25173;50.430;18.926;2023-06-26T14:45:53;4.95;;;3.30;;
39486;SDS011;25173;50.430;18.926;2023-06-26T14:48:54;5.00;;;4.05;;
39486;SDS011;25173;50.430;18.926;2023-06-26T14:51:56;6.97;;;3.40;;
39486;SDS011;25173;50.430;18.926;2023-06-26T14:54:56;3.92;;;3.58;;
39486;SDS011;25173;50.430;18.926;2023-06-26T14:57:57;4.55;;;3.40;;
39486;SDS011;25173;50.430;18.926;2023-06-26T15:00:58;3.85;;;3.45;;
39486;SDS011;25173;50.430;18.926;2023-06-26T15:03:58;7.43;;;3.33;;
39486;SDS011;25173;50.430;18.926;2023-06-26T15:06:59;5.03;;;3.60;;
39486;SDS011;25173;50.430;18.926;2023-06-26T15:10:00;5.65;;;3.47;;
39486;SDS011;25173;50.430;18.926;2023-06-26T15:13:00;5.15;;;4.05;;
39486;SDS011;25173;50.430;18.926;2023-06-26T15:16:01;3.58;;;3.28;;
39486;SDS011;25173;50.430;18.926;2023-06-26T15:19:01;4.43;;;3.90;;
39486;SDS011;25173;50.430;18.926;2023-06-26T15:22:02;6.30;;;4.00;;
39486;SDS011;25173;50.430;18.926;2023-06-26T15:25:03;4.47;;;4.05;;
39486;SDS011;25173;50.430;18.926;2023-06-26T15:28:04;4.32;;;3.45;;
39486;SDS011;25173;50.430;18.926;2023-06-26T15:31:06;3.75;;;3.45;;
39486;SDS011;25173;50.430;18.926;2023-06-26T15:34:06;3.67;;;3.38;;
39486;SDS011;25173;50.430;18.926;2023-06-26T15:37:08;5.07;;;3.60;;
39486;SDS011;25173;50.430;18.926;2023-06-26T15:40:09;6.13;;;4.38;;
39486;SDS011;25173;50.430;18.926;2023-06-26T15:43:11;8.85;;;4.10;;
39486;SDS011;25173;50.430;18.926;2023-06-26T15:46:11;6.22;;;3.67;;
39486;SDS011;25173;50.430;18.926;2023-06-26T15:49:12;4.75;;;3.33;;
39486;SDS011;25173;50.430;18.926;2023-06-26T15:52:13;4.45;;;3.92;;
39486;SDS011;25173;50.430;18.926;2023-06-26T15:55:15;6.45;;;4.03;;
39486;SDS011;25173;50.430;18.926;2023-06-26T15:58:15;4.55;;;3.97;;
39486;SDS011;25173;50.430;18.926;2023-06-26T16:01:18;4.57;;;3.78;;
39486;SDS011;25173;50.430;18.926;2023-06-26T16:04:35;8.43;;;4.15;;
39486;SDS011;25173;50.430;18.926;2023-06-26T16:07:36;7.70;;;3.97;;
39486;SDS011;25173;50.430;18.926;2023-06-26T16:10:36;9.27;;;4.13;;
39486;SDS011;25173;50.430;18.926;2023-06-26T16:13:37;3.83;;;3.50;;
39486;SDS011;25173;50.430;18.926;2023-06-26T16:16:39;5.82;;;3.80;;
39486;SDS011;25173;50.430;18.926;2023-06-26T16:19:39;5.65;;;3.90;;
39486;SDS011;25173;50.430;18.926;2023-06-26T16:22:40;4.53;;;3.75;;
39486;SDS011;25173;50.430;18.926;2023-06-26T16:25:40;5.85;;;4.22;;
39486;SDS011;25173;50.430;18.926;2023-06-26T16:28:41;8.88;;;3.70;;
39486;SDS011;25173;50.430;18.926;2023-06-26T16:31:42;5.53;;;3.58;;
39486;SDS011;25173;50.430;18.926;2023-06-26T16:34:42;4.25;;;3.55;;
39486;SDS011;25173;50.430;18.926;2023-06-26T16:37:43;4.10;;;3.58;;
39486;SDS011;25173;50.430;18.926;2023-06-26T16:40:44;4.22;;;3.70;;
39486;SDS011;25173;50.430;18.926;2023-06-26T16:43:44;7.15;;;3.53;;
39486;SDS011;25173;50.430;18.926;2023-06-26T16:46:46;4.03;;;3.17;;
39486;SDS011;25173;50.430;18.926;2023-06-26T16:49:47;7.30;;;3.45;;
39486;SDS011;25173;50.430;18.926;2023-06-26T16:52:48;5.07;;;3.22;;
39486;SDS011;25173;50.430;18.926;2023-06-26T16:55:48;4.65;;;3.42;;
39486;SDS011;25173;50.430;18.926;2023-06-26T16:58:49;8.77;;;3.20;;
39486;SDS011;25173;50.430;18.926;2023-06-26T17:01:49;5.40;;;3.50;;
39486;SDS011;25173;50.430;18.926;2023-06-26T17:04:50;7.65;;;3.85;;
39486;SDS011;25173;50.430;18.926;2023-06-26T17:07:51;4.95;;;3.55;;
39486;SDS011;25173;50.430;18.926;2023-06-26T17:10:51;8.10;;;4.00;;
39486;SDS011;25173;50.430;18.926;2023-06-26T17:13:52;8.82;;;3.92;;
39486;SDS011;25173;50.430;18.926;2023-06-26T17:16:52;4.93;;;3.40;;
39486;SDS011;25173;50.430;18.926;2023-06-26T17:19:53;6.97;;;4.78;;
39486;SDS011;25173;50.430;18.926;2023-06-26T17:22:59;6.50;;;3.55;;
39486;SDS011;25173;50.430;18.926;2023-06-26T17:26:00;6.32;;;3.80;;
39486;SDS011;25173;50.430;18.926;2023-06-26T17:29:01;7.30;;;3.65;;
39486;SDS011;25173;50.430;18.926;2023-06-26T17:32:01;5.93;;;3.42;;
39486;SDS011;25173;50.430;18.926;2023-06-26T17:35:02;7.00;;;3.90;;
39486;SDS011;25173;50.430;18.926;2023-06-26T17:38:07;5.40;;;3.70;;
39486;SDS011;25173;50.430;18.926;2023-06-26T17:41:08;5.28;;;3.30;;
39486;SDS011;25173;50.430;18.926;2023-06-26T17:44:09;5.38;;;4.22;;
39486;SDS011;25173;50.430;18.926;2023-06-26T17:47:09;4.85;;;3.80;;
39486;SDS011;25173;50.430;18.926;2023-06-26T17:50:10;4.53;;;3.83;;
39486;SDS011;25173;50.430;18.926;2023-06-26T17:53:13;4.32;;;3.65;;
39486;SDS011;25173;50.430;18.926;2023-06-26T17:56:13;11.68;;;3.60;;
39486;SDS011;25173;50.430;18.926;2023-06-26T17:59:14;5.00;;;3.72;;